الصفحة الرئيسية
METAR-TAF:

METAR-TAF

مطار :

ناتال, ريو غراندي دو نورتي, البرازيل

دائرة عرض: 05-46-05S, خط طول: 035-22-34W, ارتفاع: 88 متر

مراقبة الطقس الحالي

تاريخ ووقت الإصدار 21 دقيقة قبل الساعة 18:00UTC
ريح 11 عقدة من الشرق/الشمال الشرقي, الاتجاه يتراوح بين الشمال/الشمال الشرقي و الشرق
درجة الحرارة 31°درجة مئوية
الرطوبة 59%
ضغط 1009 hPa
الرؤية 10 كم أو أكثر
غيوم متفرقة على ارتفاع 2900 قدم

METAR: SBSG 211800Z 06011KT 020V080 9999 SCT029 31/22 Q1009

زمن: 15:21 (18:21 UTC)

توقعات

تاريخ ووقت الإصدار 1ساعة و 51 دقيقة قبل الساعة 16:30UTC
التوقعات صالحة من21 الساعة 18 UTC إلى 22 الساعة 18 UTC
ريح 10 عقدة من الشرق
الرؤية 10 كم أو أكثر
غيوم متفرقة على ارتفاع 2000 قدم
أصبح
من 22 الساعة 01 UTC إلى 22 الساعة 03 UTC
ريح 5 عقدة من الجنوب/الجنوب الغربي
أصبح
من 22 الساعة 11 UTC إلى 22 الساعة 13 UTC
ريح 10 عقدة من الشرق
غيوم مفككة على ارتفاع 2300 قدم

TAF: SBSG 211630Z 2118/2218 09010KT 9999 SCT020 TN25/2207Z TX31/2215Z BECMG 2201/2203 20005KT BECMG 2211/2213 09010KT BKN023 RMK PHD

أرصاد الطقس والتوقعات من أكثر من 4000 مطار (تقارير الطقس للمطار METAR والتنبؤ بالطقس بالمطارTAF).

المحطات المتاحة هي النقط الصفراء والحمراء على الخريطة.

حرك المؤشر فوق النقطة لمعرفة اسم المحطة.

ثم انقر لمعرفة أرصاد وتوقعات الطقس.

لتغيير الخارطة: اضغط على الأزرار الخضراء مع رمز الصليب الأسود للتكبير. على الزر الأخضر مع شرطة للتصغير، أو على الأسهم الخضراء للخرائط المجاورة.


METAR-TAF: